sensor_id;sensor_type;location;lat;lon;timestamp;P1;durP1;ratioP1;P2;durP2;ratioP2
59042;SDS011;44826;51.596;5.624;2023-02-26T00:01:32;5.33;;;2.63;;
59042;SDS011;44826;51.596;5.624;2023-02-26T00:03:59;7.13;;;2.63;;
59042;SDS011;44826;51.596;5.624;2023-02-26T00:06:26;5.27;;;2.50;;
59042;SDS011;44826;51.596;5.624;2023-02-26T00:08:52;6.47;;;2.40;;
59042;SDS011;44826;51.596;5.624;2023-02-26T00:11:17;8.43;;;3.07;;
59042;SDS011;44826;51.596;5.624;2023-02-26T00:13:43;6.13;;;2.53;;
59042;SDS011;44826;51.596;5.624;2023-02-26T00:16:16;6.10;;;2.40;;
59042;SDS011;44826;51.596;5.624;2023-02-26T00:18:47;5.87;;;2.50;;
59042;SDS011;44826;51.596;5.624;2023-02-26T00:21:16;6.43;;;2.40;;
59042;SDS011;44826;51.596;5.624;2023-02-26T00:23:43;5.90;;;2.60;;
59042;SDS011;44826;51.596;5.624;2023-02-26T00:26:09;8.87;;;2.20;;
59042;SDS011;44826;51.596;5.624;2023-02-26T00:28:34;7.13;;;2.70;;
59042;SDS011;44826;51.596;5.624;2023-02-26T00:31:00;6.47;;;2.50;;
59042;SDS011;44826;51.596;5.624;2023-02-26T00:33:25;6.40;;;2.53;;
59042;SDS011;44826;51.596;5.624;2023-02-26T00:35:53;5.43;;;2.20;;
59042;SDS011;44826;51.596;5.624;2023-02-26T00:38:27;6.00;;;2.20;;
59042;SDS011;44826;51.596;5.624;2023-02-26T00:40:56;5.03;;;2.37;;
59042;SDS011;44826;51.596;5.624;2023-02-26T00:43:23;7.27;;;2.50;;
59042;SDS011;44826;51.596;5.624;2023-02-26T00:48:58;5.00;;;2.03;;
59042;SDS011;44826;51.596;5.624;2023-02-26T00:51:57;6.87;;;2.13;;
59042;SDS011;44826;51.596;5.624;2023-02-26T00:54:26;4.17;;;2.03;;
59042;SDS011;44826;51.596;5.624;2023-02-26T00:56:53;5.30;;;2.20;;
59042;SDS011;44826;51.596;5.624;2023-02-26T00:59:20;5.63;;;2.20;;
59042;SDS011;44826;51.596;5.624;2023-02-26T01:01:46;5.87;;;2.27;;
59042;SDS011;44826;51.596;5.624;2023-02-26T01:04:13;5.20;;;2.20;;
59042;SDS011;44826;51.596;5.624;2023-02-26T01:06:41;7.30;;;2.20;;
59042;SDS011;44826;51.596;5.624;2023-02-26T01:11:54;4.37;;;1.83;;
59042;SDS011;44826;51.596;5.624;2023-02-26T01:14:22;5.87;;;2.43;;
59042;SDS011;44826;51.596;5.624;2023-02-26T01:22:30;4.80;;;2.00;;
59042;SDS011;44826;51.596;5.624;2023-02-26T01:25:02;3.60;;;1.80;;
59042;SDS011;44826;51.596;5.624;2023-02-26T01:27:29;4.57;;;1.80;;
59042;SDS011;44826;51.596;5.624;2023-02-26T01:29:55;4.27;;;2.10;;
59042;SDS011;44826;51.596;5.624;2023-02-26T01:32:25;4.40;;;1.90;;
59042;SDS011;44826;51.596;5.624;2023-02-26T01:43:09;6.30;;;2.23;;
59042;SDS011;44826;51.596;5.624;2023-02-26T01:45:43;5.30;;;2.03;;
59042;SDS011;44826;51.596;5.624;2023-02-26T01:48:43;4.67;;;2.00;;
59042;SDS011;44826;51.596;5.624;2023-02-26T01:51:17;4.33;;;1.77;;
59042;SDS011;44826;51.596;5.624;2023-02-26T01:53:43;5.83;;;2.20;;
59042;SDS011;44826;51.596;5.624;2023-02-26T01:56:13;4.47;;;2.30;;
59042;SDS011;44826;51.596;5.624;2023-02-26T01:58:42;4.10;;;1.80;;
59042;SDS011;44826;51.596;5.624;2023-02-26T02:01:08;5.00;;;1.83;;
59042;SDS011;44826;51.596;5.624;2023-02-26T02:03:34;6.90;;;2.23;;
59042;SDS011;44826;51.596;5.624;2023-02-26T02:06:03;4.70;;;2.00;;
59042;SDS011;44826;51.596;5.624;2023-02-26T02:08:33;4.28;;;1.95;;
59042;SDS011;44826;51.596;5.624;2023-02-26T02:11:00;4.70;;;1.70;;
59042;SDS011;44826;51.596;5.624;2023-02-26T02:13:30;6.10;;;2.00;;
59042;SDS011;44826;51.596;5.624;2023-02-26T02:16:24;4.83;;;1.80;;
59042;SDS011;44826;51.596;5.624;2023-02-26T02:21:52;2.70;;;1.60;;
59042;SDS011;44826;51.596;5.624;2023-02-26T02:24:46;5.30;;;1.60;;
59042;SDS011;44826;51.596;5.624;2023-02-26T02:27:46;4.47;;;1.73;;
59042;SDS011;44826;51.596;5.624;2023-02-26T02:30:34;3.50;;;1.57;;
59042;SDS011;44826;51.596;5.624;2023-02-26T02:33:18;6.50;;;1.60;;
59042;SDS011;44826;51.596;5.624;2023-02-26T02:35:55;5.87;;;1.70;;
59042;SDS011;44826;51.596;5.624;2023-02-26T02:38:26;2.30;;;1.13;;
59042;SDS011;44826;51.596;5.624;2023-02-26T02:41:05;3.60;;;1.50;;
59042;SDS011;44826;51.596;5.624;2023-02-26T02:43:35;4.80;;;1.40;;
59042;SDS011;44826;51.596;5.624;2023-02-26T02:46:04;3.67;;;1.40;;
59042;SDS011;44826;51.596;5.624;2023-02-26T02:51:36;4.00;;;1.15;;
59042;SDS011;44826;51.596;5.624;2023-02-26T02:54:17;3.07;;;1.10;;
59042;SDS011;44826;51.596;5.624;2023-02-26T02:56:55;2.77;;;1.13;;
59042;SDS011;44826;51.596;5.624;2023-02-26T02:59:33;3.27;;;1.20;;
59042;SDS011;44826;51.596;5.624;2023-02-26T03:05:07;1.87;;;0.80;;
59042;SDS011;44826;51.596;5.624;2023-02-26T03:07:35;3.40;;;1.20;;
59042;SDS011;44826;51.596;5.624;2023-02-26T03:10:05;6.93;;;1.33;;
59042;SDS011;44826;51.596;5.624;2023-02-26T03:12:31;2.90;;;1.10;;
59042;SDS011;44826;51.596;5.624;2023-02-26T03:14:56;3.83;;;0.90;;
59042;SDS011;44826;51.596;5.624;2023-02-26T03:20:25;4.70;;;1.20;;
59042;SDS011;44826;51.596;5.624;2023-02-26T03:23:10;2.53;;;1.00;;
59042;SDS011;44826;51.596;5.624;2023-02-26T03:28:50;4.90;;;1.10;;
59042;SDS011;44826;51.596;5.624;2023-02-26T03:31:32;3.87;;;1.10;;
59042;SDS011;44826;51.596;5.624;2023-02-26T03:34:16;3.57;;;0.90;;
59042;SDS011;44826;51.596;5.624;2023-02-26T03:36:50;3.40;;;1.13;;
59042;SDS011;44826;51.596;5.624;2023-02-26T03:39:22;3.77;;;0.93;;
59042;SDS011;44826;51.596;5.624;2023-02-26T03:41:55;2.93;;;0.90;;
59042;SDS011;44826;51.596;5.624;2023-02-26T03:47:33;5.07;;;1.53;;
59042;SDS011;44826;51.596;5.624;2023-02-26T03:50:07;4.93;;;1.30;;
59042;SDS011;44826;51.596;5.624;2023-02-26T03:52:38;2.83;;;0.73;;
59042;SDS011;44826;51.596;5.624;2023-02-26T03:57:55;3.43;;;1.30;;
59042;SDS011;44826;51.596;5.624;2023-02-26T04:00:21;3.73;;;1.00;;
59042;SDS011;44826;51.596;5.624;2023-02-26T04:02:50;2.87;;;1.03;;
59042;SDS011;44826;51.596;5.624;2023-02-26T04:05:30;6.00;;;1.20;;
59042;SDS011;44826;51.596;5.624;2023-02-26T04:07:58;2.13;;;1.00;;
59042;SDS011;44826;51.596;5.624;2023-02-26T04:10:26;3.40;;;1.00;;
59042;SDS011;44826;51.596;5.624;2023-02-26T04:13:01;4.87;;;1.10;;
59042;SDS011;44826;51.596;5.624;2023-02-26T04:15:26;4.20;;;1.30;;
59042;SDS011;44826;51.596;5.624;2023-02-26T04:17:52;2.57;;;1.10;;
59042;SDS011;44826;51.596;5.624;2023-02-26T04:20:17;2.20;;;1.10;;
59042;SDS011;44826;51.596;5.624;2023-02-26T04:22:43;3.27;;;1.10;;
59042;SDS011;44826;51.596;5.624;2023-02-26T04:25:08;3.13;;;1.00;;
59042;SDS011;44826;51.596;5.624;2023-02-26T04:27:34;1.60;;;0.80;;
59042;SDS011;44826;51.596;5.624;2023-02-26T04:29:59;2.53;;;1.00;;
59042;SDS011;44826;51.596;5.624;2023-02-26T04:32:24;3.43;;;1.10;;
59042;SDS011;44826;51.596;5.624;2023-02-26T04:34:49;2.13;;;0.90;;
59042;SDS011;44826;51.596;5.624;2023-02-26T04:37:15;2.17;;;0.80;;
59042;SDS011;44826;51.596;5.624;2023-02-26T04:39:40;3.57;;;1.00;;
59042;SDS011;44826;51.596;5.624;2023-02-26T04:42:05;4.07;;;1.00;;
59042;SDS011;44826;51.596;5.624;2023-02-26T04:44:31;4.43;;;0.90;;
59042;SDS011;44826;51.596;5.624;2023-02-26T04:46:56;4.10;;;1.10;;
59042;SDS011;44826;51.596;5.624;2023-02-26T04:49:22;4.27;;;0.97;;
59042;SDS011;44826;51.596;5.624;2023-02-26T04:51:47;2.87;;;1.03;;
59042;SDS011;44826;51.596;5.624;2023-02-26T04:54:12;4.10;;;0.90;;
59042;SDS011;44826;51.596;5.624;2023-02-26T04:56:38;3.20;;;1.00;;
59042;SDS011;44826;51.596;5.624;2023-02-26T04:59:03;3.07;;;0.80;;
59042;SDS011;44826;51.596;5.624;2023-02-26T05:01:29;1.60;;;0.90;;
59042;SDS011;44826;51.596;5.624;2023-02-26T05:03:54;4.63;;;1.10;;
59042;SDS011;44826;51.596;5.624;2023-02-26T05:06:20;4.93;;;1.10;;
59042;SDS011;44826;51.596;5.624;2023-02-26T05:08:45;2.33;;;0.70;;
59042;SDS011;44826;51.596;5.624;2023-02-26T05:11:11;3.70;;;0.70;;
59042;SDS011;44826;51.596;5.624;2023-02-26T05:13:37;2.07;;;0.77;;
59042;SDS011;44826;51.596;5.624;2023-02-26T05:16:02;3.73;;;0.87;;
59042;SDS011;44826;51.596;5.624;2023-02-26T05:18:28;2.60;;;0.80;;
59042;SDS011;44826;51.596;5.624;2023-02-26T05:20:54;3.97;;;0.90;;
59042;SDS011;44826;51.596;5.624;2023-02-26T05:23:20;1.87;;;0.60;;
59042;SDS011;44826;51.596;5.624;2023-02-26T05:25:46;3.20;;;0.80;;
59042;SDS011;44826;51.596;5.624;2023-02-26T05:28:12;1.57;;;0.70;;
59042;SDS011;44826;51.596;5.624;2023-02-26T05:30:38;7.17;;;0.90;;
59042;SDS011;44826;51.596;5.624;2023-02-26T05:33:04;3.17;;;0.90;;
59042;SDS011;44826;51.596;5.624;2023-02-26T05:35:29;2.70;;;0.70;;
59042;SDS011;44826;51.596;5.624;2023-02-26T05:37:54;2.83;;;0.77;;
59042;SDS011;44826;51.596;5.624;2023-02-26T05:40:19;2.50;;;0.67;;
59042;SDS011;44826;51.596;5.624;2023-02-26T05:42:45;1.40;;;0.70;;
59042;SDS011;44826;51.596;5.624;2023-02-26T05:45:10;5.00;;;0.77;;
59042;SDS011;44826;51.596;5.624;2023-02-26T05:47:35;2.80;;;0.70;;
59042;SDS011;44826;51.596;5.624;2023-02-26T05:50:01;1.97;;;0.70;;
59042;SDS011;44826;51.596;5.624;2023-02-26T05:52:27;2.27;;;0.60;;
59042;SDS011;44826;51.596;5.624;2023-02-26T05:54:53;0.90;;;0.50;;
59042;SDS011;44826;51.596;5.624;2023-02-26T05:57:18;3.00;;;0.73;;
59042;SDS011;44826;51.596;5.624;2023-02-26T05:59:43;6.87;;;0.80;;
59042;SDS011;44826;51.596;5.624;2023-02-26T06:02:09;2.27;;;0.70;;
59042;SDS011;44826;51.596;5.624;2023-02-26T06:04:34;5.63;;;0.73;;
59042;SDS011;44826;51.596;5.624;2023-02-26T06:07:00;2.87;;;0.80;;
59042;SDS011;44826;51.596;5.624;2023-02-26T06:09:25;3.83;;;0.90;;
59042;SDS011;44826;51.596;5.624;2023-02-26T06:11:51;5.20;;;0.80;;
59042;SDS011;44826;51.596;5.624;2023-02-26T06:14:16;3.93;;;0.80;;
59042;SDS011;44826;51.596;5.624;2023-02-26T06:16:41;3.23;;;0.80;;
59042;SDS011;44826;51.596;5.624;2023-02-26T06:19:07;3.63;;;0.90;;
59042;SDS011;44826;51.596;5.624;2023-02-26T06:21:32;1.50;;;0.73;;
59042;SDS011;44826;51.596;5.624;2023-02-26T06:23:57;1.87;;;0.70;;
59042;SDS011;44826;51.596;5.624;2023-02-26T06:26:23;2.90;;;0.60;;
59042;SDS011;44826;51.596;5.624;2023-02-26T06:28:48;3.17;;;0.80;;
59042;SDS011;44826;51.596;5.624;2023-02-26T06:31:13;1.47;;;0.50;;
59042;SDS011;44826;51.596;5.624;2023-02-26T06:33:38;3.43;;;0.90;;
59042;SDS011;44826;51.596;5.624;2023-02-26T06:36:04;3.40;;;0.83;;
59042;SDS011;44826;51.596;5.624;2023-02-26T06:38:29;1.80;;;0.63;;
59042;SDS011;44826;51.596;5.624;2023-02-26T06:40:55;2.23;;;0.73;;
59042;SDS011;44826;51.596;5.624;2023-02-26T06:43:20;1.40;;;0.70;;
59042;SDS011;44826;51.596;5.624;2023-02-26T06:45:46;1.53;;;0.50;;
59042;SDS011;44826;51.596;5.624;2023-02-26T06:48:12;3.17;;;0.80;;
59042;SDS011;44826;51.596;5.624;2023-02-26T06:50:37;2.43;;;0.67;;
59042;SDS011;44826;51.596;5.624;2023-02-26T06:53:03;2.00;;;0.60;;
59042;SDS011;44826;51.596;5.624;2023-02-26T06:55:28;2.70;;;0.73;;
59042;SDS011;44826;51.596;5.624;2023-02-26T06:57:54;2.83;;;0.70;;
59042;SDS011;44826;51.596;5.624;2023-02-26T07:00:20;3.73;;;0.70;;
59042;SDS011;44826;51.596;5.624;2023-02-26T07:02:46;9.80;;;1.10;;
59042;SDS011;44826;51.596;5.624;2023-02-26T07:05:11;1.93;;;0.73;;
59042;SDS011;44826;51.596;5.624;2023-02-26T07:07:36;2.57;;;0.50;;
59042;SDS011;44826;51.596;5.624;2023-02-26T07:10:02;3.53;;;0.70;;
59042;SDS011;44826;51.596;5.624;2023-02-26T07:12:27;2.90;;;0.70;;
59042;SDS011;44826;51.596;5.624;2023-02-26T07:14:53;2.40;;;0.60;;
59042;SDS011;44826;51.596;5.624;2023-02-26T07:17:18;3.27;;;0.97;;
59042;SDS011;44826;51.596;5.624;2023-02-26T07:19:48;1.87;;;0.80;;
59042;SDS011;44826;51.596;5.624;2023-02-26T07:22:14;2.90;;;0.60;;
59042;SDS011;44826;51.596;5.624;2023-02-26T07:24:40;2.57;;;0.60;;
59042;SDS011;44826;51.596;5.624;2023-02-26T07:27:06;1.67;;;0.60;;
59042;SDS011;44826;51.596;5.624;2023-02-26T07:29:32;1.50;;;0.63;;
59042;SDS011;44826;51.596;5.624;2023-02-26T07:31:57;1.87;;;0.67;;
59042;SDS011;44826;51.596;5.624;2023-02-26T07:34:22;3.37;;;0.83;;
59042;SDS011;44826;51.596;5.624;2023-02-26T07:36:48;1.73;;;0.80;;
59042;SDS011;44826;51.596;5.624;2023-02-26T07:39:13;2.30;;;1.20;;
59042;SDS011;44826;51.596;5.624;2023-02-26T07:41:38;5.77;;;1.10;;
59042;SDS011;44826;51.596;5.624;2023-02-26T07:44:04;3.67;;;0.70;;
59042;SDS011;44826;51.596;5.624;2023-02-26T07:46:29;1.93;;;0.60;;
59042;SDS011;44826;51.596;5.624;2023-02-26T07:48:54;1.83;;;0.70;;
59042;SDS011;44826;51.596;5.624;2023-02-26T07:51:20;2.43;;;0.67;;
59042;SDS011;44826;51.596;5.624;2023-02-26T07:53:45;1.60;;;0.70;;
59042;SDS011;44826;51.596;5.624;2023-02-26T07:56:10;2.33;;;0.93;;
59042;SDS011;44826;51.596;5.624;2023-02-26T07:58:36;3.53;;;0.80;;
59042;SDS011;44826;51.596;5.624;2023-02-26T08:01:01;2.63;;;0.80;;
59042;SDS011;44826;51.596;5.624;2023-02-26T08:03:26;4.20;;;1.07;;
59042;SDS011;44826;51.596;5.624;2023-02-26T08:05:52;2.90;;;0.70;;
59042;SDS011;44826;51.596;5.624;2023-02-26T08:08:17;3.57;;;0.90;;
59042;SDS011;44826;51.596;5.624;2023-02-26T08:10:42;2.87;;;1.00;;
59042;SDS011;44826;51.596;5.624;2023-02-26T08:13:08;3.10;;;0.87;;
59042;SDS011;44826;51.596;5.624;2023-02-26T08:15:33;4.87;;;0.70;;
59042;SDS011;44826;51.596;5.624;2023-02-26T08:17:58;3.67;;;0.90;;
59042;SDS011;44826;51.596;5.624;2023-02-26T08:20:24;1.97;;;0.90;;
59042;SDS011;44826;51.596;5.624;2023-02-26T08:22:49;3.10;;;0.90;;
59042;SDS011;44826;51.596;5.624;2023-02-26T08:25:15;3.20;;;0.70;;
59042;SDS011;44826;51.596;5.624;2023-02-26T08:27:40;1.00;;;0.60;;
59042;SDS011;44826;51.596;5.624;2023-02-26T08:30:07;1.30;;;0.50;;
59042;SDS011;44826;51.596;5.624;2023-02-26T08:32:33;2.60;;;0.67;;
59042;SDS011;44826;51.596;5.624;2023-02-26T08:34:59;3.10;;;0.73;;
59042;SDS011;44826;51.596;5.624;2023-02-26T08:37:24;2.20;;;0.60;;
59042;SDS011;44826;51.596;5.624;2023-02-26T08:39:50;3.67;;;0.87;;
59042;SDS011;44826;51.596;5.624;2023-02-26T08:42:16;3.03;;;0.77;;
59042;SDS011;44826;51.596;5.624;2023-02-26T08:44:41;2.43;;;0.80;;
59042;SDS011;44826;51.596;5.624;2023-02-26T08:47:07;2.17;;;0.80;;
59042;SDS011;44826;51.596;5.624;2023-02-26T08:49:33;5.07;;;0.90;;
59042;SDS011;44826;51.596;5.624;2023-02-26T08:51:58;2.63;;;1.10;;
59042;SDS011;44826;51.596;5.624;2023-02-26T08:54:24;2.93;;;0.80;;
59042;SDS011;44826;51.596;5.624;2023-02-26T08:56:49;1.60;;;0.60;;
59042;SDS011;44826;51.596;5.624;2023-02-26T08:59:14;3.53;;;0.77;;
59042;SDS011;44826;51.596;5.624;2023-02-26T09:01:40;1.90;;;0.70;;
59042;SDS011;44826;51.596;5.624;2023-02-26T09:04:05;2.43;;;0.80;;
59042;SDS011;44826;51.596;5.624;2023-02-26T09:06:30;1.00;;;0.50;;
59042;SDS011;44826;51.596;5.624;2023-02-26T09:08:56;2.20;;;0.67;;
59042;SDS011;44826;51.596;5.624;2023-02-26T09:11:21;0.57;;;0.43;;
59042;SDS011;44826;51.596;5.624;2023-02-26T09:13:46;3.23;;;0.70;;
59042;SDS011;44826;51.596;5.624;2023-02-26T09:16:11;1.07;;;0.60;;
59042;SDS011;44826;51.596;5.624;2023-02-26T09:18:37;1.10;;;0.50;;
59042;SDS011;44826;51.596;5.624;2023-02-26T09:21:02;1.87;;;0.50;;
59042;SDS011;44826;51.596;5.624;2023-02-26T09:23:28;1.40;;;0.60;;
59042;SDS011;44826;51.596;5.624;2023-02-26T09:25:54;2.83;;;0.70;;
59042;SDS011;44826;51.596;5.624;2023-02-26T09:28:21;1.60;;;0.50;;
59042;SDS011;44826;51.596;5.624;2023-02-26T09:30:51;3.70;;;0.80;;
59042;SDS011;44826;51.596;5.624;2023-02-26T09:33:18;2.97;;;0.50;;
59042;SDS011;44826;51.596;5.624;2023-02-26T09:35:43;1.33;;;0.60;;
59042;SDS011;44826;51.596;5.624;2023-02-26T09:38:08;1.43;;;0.70;;
59042;SDS011;44826;51.596;5.624;2023-02-26T09:43:32;2.23;;;0.77;;
59042;SDS011;44826;51.596;5.624;2023-02-26T09:46:09;2.77;;;0.73;;
59042;SDS011;44826;51.596;5.624;2023-02-26T09:48:45;1.87;;;0.63;;
59042;SDS011;44826;51.596;5.624;2023-02-26T09:51:15;1.60;;;0.60;;
59042;SDS011;44826;51.596;5.624;2023-02-26T09:53:44;2.00;;;0.60;;
59042;SDS011;44826;51.596;5.624;2023-02-26T09:56:14;1.83;;;0.70;;
59042;SDS011;44826;51.596;5.624;2023-02-26T09:58:42;1.73;;;0.60;;
59042;SDS011;44826;51.596;5.624;2023-02-26T10:06:29;2.63;;;0.60;;
59042;SDS011;44826;51.596;5.624;2023-02-26T10:11:46;3.20;;;0.60;;
59042;SDS011;44826;51.596;5.624;2023-02-26T10:14:34;2.13;;;0.50;;
59042;SDS011;44826;51.596;5.624;2023-02-26T10:17:50;1.47;;;0.60;;
59042;SDS011;44826;51.596;5.624;2023-02-26T10:22:30;3.03;;;0.80;;
59042;SDS011;44826;51.596;5.624;2023-02-26T10:25:11;3.07;;;0.50;;
59042;SDS011;44826;51.596;5.624;2023-02-26T10:30:45;1.13;;;0.40;;
59042;SDS011;44826;51.596;5.624;2023-02-26T10:33:23;0.90;;;0.40;;
59042;SDS011;44826;51.596;5.624;2023-02-26T10:35:58;1.20;;;0.50;;
59042;SDS011;44826;51.596;5.624;2023-02-26T10:38:32;0.63;;;0.40;;
59042;SDS011;44826;51.596;5.624;2023-02-26T10:41:01;0.93;;;0.50;;
59042;SDS011;44826;51.596;5.624;2023-02-26T10:43:39;1.40;;;0.30;;
59042;SDS011;44826;51.596;5.624;2023-02-26T10:51:45;1.17;;;0.33;;
59042;SDS011;44826;51.596;5.624;2023-02-26T10:57:08;0.97;;;0.43;;
59042;SDS011;44826;51.596;5.624;2023-02-26T10:59:43;1.10;;;0.80;;
59042;SDS011;44826;51.596;5.624;2023-02-26T11:02:17;1.13;;;0.43;;
59042;SDS011;44826;51.596;5.624;2023-02-26T11:04:59;0.73;;;0.40;;
59042;SDS011;44826;51.596;5.624;2023-02-26T11:07:26;1.63;;;0.50;;
59042;SDS011;44826;51.596;5.624;2023-02-26T11:09:54;2.40;;;0.50;;
59042;SDS011;44826;51.596;5.624;2023-02-26T11:12:19;1.53;;;0.50;;
59042;SDS011;44826;51.596;5.624;2023-02-26T11:14:48;0.67;;;0.40;;
59042;SDS011;44826;51.596;5.624;2023-02-26T11:17:24;2.30;;;0.37;;
59042;SDS011;44826;51.596;5.624;2023-02-26T11:19:58;2.07;;;0.40;;
59042;SDS011;44826;51.596;5.624;2023-02-26T11:22:28;1.93;;;0.40;;
59042;SDS011;44826;51.596;5.624;2023-02-26T11:24:56;1.53;;;0.50;;
59042;SDS011;44826;51.596;5.624;2023-02-26T11:27:24;1.17;;;0.37;;
59042;SDS011;44826;51.596;5.624;2023-02-26T11:30:14;0.83;;;0.50;;
59042;SDS011;44826;51.596;5.624;2023-02-26T11:32:44;1.53;;;0.50;;
59042;SDS011;44826;51.596;5.624;2023-02-26T11:35:16;0.68;;;0.40;;
59042;SDS011;44826;51.596;5.624;2023-02-26T11:37:45;1.00;;;0.50;;
59042;SDS011;44826;51.596;5.624;2023-02-26T11:42:51;1.37;;;0.40;;
59042;SDS011;44826;51.596;5.624;2023-02-26T11:45:19;1.73;;;0.50;;
59042;SDS011;44826;51.596;5.624;2023-02-26T11:47:46;2.83;;;0.40;;
59042;SDS011;44826;51.596;5.624;2023-02-26T11:50:14;1.00;;;0.40;;
59042;SDS011;44826;51.596;5.624;2023-02-26T11:52:44;1.60;;;0.40;;
59042;SDS011;44826;51.596;5.624;2023-02-26T11:55:20;2.00;;;0.50;;
59042;SDS011;44826;51.596;5.624;2023-02-26T11:57:51;1.33;;;0.67;;
59042;SDS011;44826;51.596;5.624;2023-02-26T12:00:19;1.37;;;0.40;;
59042;SDS011;44826;51.596;5.624;2023-02-26T12:02:49;2.43;;;0.50;;
59042;SDS011;44826;51.596;5.624;2023-02-26T12:05:15;0.90;;;0.53;;
59042;SDS011;44826;51.596;5.624;2023-02-26T12:07:42;0.80;;;0.40;;
59042;SDS011;44826;51.596;5.624;2023-02-26T12:10:17;1.57;;;0.50;;
59042;SDS011;44826;51.596;5.624;2023-02-26T12:13:04;2.60;;;0.60;;
59042;SDS011;44826;51.596;5.624;2023-02-26T12:15:59;2.00;;;0.52;;
59042;SDS011;44826;51.596;5.624;2023-02-26T12:18:29;2.63;;;0.43;;
59042;SDS011;44826;51.596;5.624;2023-02-26T12:23:55;0.80;;;0.33;;
59042;SDS011;44826;51.596;5.624;2023-02-26T12:26:34;1.13;;;0.53;;
59042;SDS011;44826;51.596;5.624;2023-02-26T12:37:33;1.27;;;0.40;;
59042;SDS011;44826;51.596;5.624;2023-02-26T12:43:01;1.70;;;0.63;;
59042;SDS011;44826;51.596;5.624;2023-02-26T12:53:41;0.90;;;0.40;;
59042;SDS011;44826;51.596;5.624;2023-02-26T12:56:22;1.77;;;0.40;;
59042;SDS011;44826;51.596;5.624;2023-02-26T13:07:13;0.93;;;0.40;;
59042;SDS011;44826;51.596;5.624;2023-02-26T13:20:25;1.87;;;0.50;;
59042;SDS011;44826;51.596;5.624;2023-02-26T13:22:58;1.13;;;0.50;;
59042;SDS011;44826;51.596;5.624;2023-02-26T13:28:00;2.47;;;0.60;;
59042;SDS011;44826;51.596;5.624;2023-02-26T13:30:33;1.10;;;0.40;;
59042;SDS011;44826;51.596;5.624;2023-02-26T13:33:04;0.80;;;0.40;;
59042;SDS011;44826;51.596;5.624;2023-02-26T13:35:33;2.38;;;0.47;;
59042;SDS011;44826;51.596;5.624;2023-02-26T13:38:04;2.83;;;0.50;;
59042;SDS011;44826;51.596;5.624;2023-02-26T13:40:59;1.92;;;0.60;;
59042;SDS011;44826;51.596;5.624;2023-02-26T13:49:19;2.05;;;0.40;;
59042;SDS011;44826;51.596;5.624;2023-02-26T13:51:53;1.42;;;0.40;;
59042;SDS011;44826;51.596;5.624;2023-02-26T13:59:30;1.15;;;0.40;;
59042;SDS011;44826;51.596;5.624;2023-02-26T14:04:49;1.15;;;0.50;;
59042;SDS011;44826;51.596;5.624;2023-02-26T14:08:08;2.53;;;0.47;;
59042;SDS011;44826;51.596;5.624;2023-02-26T14:10:23;1.48;;;0.43;;
59042;SDS011;44826;51.596;5.624;2023-02-26T14:16:00;2.47;;;0.63;;
59042;SDS011;44826;51.596;5.624;2023-02-26T14:18:40;0.82;;;0.50;;
59042;SDS011;44826;51.596;5.624;2023-02-26T14:23:55;1.42;;;0.50;;
59042;SDS011;44826;51.596;5.624;2023-02-26T14:26:23;2.58;;;0.60;;
59042;SDS011;44826;51.596;5.624;2023-02-26T14:31:21;1.60;;;0.60;;
59042;SDS011;44826;51.596;5.624;2023-02-26T14:36:46;1.42;;;0.60;;
59042;SDS011;44826;51.596;5.624;2023-02-26T14:39:23;3.17;;;0.40;;
59042;SDS011;44826;51.596;5.624;2023-02-26T14:41:49;1.58;;;0.50;;
59042;SDS011;44826;51.596;5.624;2023-02-26T14:44:31;2.83;;;0.60;;
59042;SDS011;44826;51.596;5.624;2023-02-26T14:47:07;0.93;;;0.50;;
59042;SDS011;44826;51.596;5.624;2023-02-26T14:49:37;1.13;;;0.52;;
59042;SDS011;44826;51.596;5.624;2023-02-26T15:00:43;1.27;;;0.50;;
59042;SDS011;44826;51.596;5.624;2023-02-26T15:03:34;1.02;;;0.50;;
59042;SDS011;44826;51.596;5.624;2023-02-26T15:14:56;1.42;;;0.50;;
59042;SDS011;44826;51.596;5.624;2023-02-26T15:20:18;0.68;;;0.30;;
59042;SDS011;44826;51.596;5.624;2023-02-26T15:25:33;0.85;;;0.47;;
59042;SDS011;44826;51.596;5.624;2023-02-26T15:28:03;1.27;;;0.60;;
59042;SDS011;44826;51.596;5.624;2023-02-26T15:30:30;1.10;;;0.60;;
59042;SDS011;44826;51.596;5.624;2023-02-26T15:32:58;3.10;;;0.60;;
59042;SDS011;44826;51.596;5.624;2023-02-26T15:35:27;1.23;;;0.52;;
59042;SDS011;44826;51.596;5.624;2023-02-26T15:37:55;0.40;;;0.40;;
59042;SDS011;44826;51.596;5.624;2023-02-26T15:40:25;0.73;;;0.40;;
59042;SDS011;44826;51.596;5.624;2023-02-26T15:42:54;1.50;;;0.47;;
59042;SDS011;44826;51.596;5.624;2023-02-26T15:45:24;1.80;;;0.50;;
59042;SDS011;44826;51.596;5.624;2023-02-26T15:47:55;0.88;;;0.50;;
59042;SDS011;44826;51.596;5.624;2023-02-26T15:50:27;1.90;;;0.50;;
59042;SDS011;44826;51.596;5.624;2023-02-26T15:52:56;1.40;;;0.60;;
59042;SDS011;44826;51.596;5.624;2023-02-26T15:55:23;1.35;;;0.60;;
59042;SDS011;44826;51.596;5.624;2023-02-26T15:57:50;1.83;;;0.50;;
59042;SDS011;44826;51.596;5.624;2023-02-26T16:00:18;1.42;;;0.60;;
59042;SDS011;44826;51.596;5.624;2023-02-26T16:02:54;1.48;;;0.47;;
59042;SDS011;44826;51.596;5.624;2023-02-26T16:05:27;2.05;;;0.60;;
59042;SDS011;44826;51.596;5.624;2023-02-26T16:07:53;1.77;;;0.43;;
59042;SDS011;44826;51.596;5.624;2023-02-26T16:10:39;1.55;;;0.40;;
59042;SDS011;44826;51.596;5.624;2023-02-26T16:13:07;2.17;;;0.50;;
59042;SDS011;44826;51.596;5.624;2023-02-26T16:15:40;1.15;;;0.50;;
59042;SDS011;44826;51.596;5.624;2023-02-26T16:18:06;1.05;;;0.40;;
59042;SDS011;44826;51.596;5.624;2023-02-26T16:20:47;1.30;;;0.77;;
59042;SDS011;44826;51.596;5.624;2023-02-26T16:23:17;0.63;;;0.50;;
59042;SDS011;44826;51.596;5.624;2023-02-26T16:25:54;0.80;;;0.43;;
59042;SDS011;44826;51.596;5.624;2023-02-26T16:28:26;1.27;;;0.60;;
59042;SDS011;44826;51.596;5.624;2023-02-26T16:30:56;1.02;;;0.60;;
59042;SDS011;44826;51.596;5.624;2023-02-26T16:33:23;1.15;;;0.50;;
59042;SDS011;44826;51.596;5.624;2023-02-26T16:38:22;1.45;;;0.40;;
59042;SDS011;44826;51.596;5.624;2023-02-26T16:41:07;1.27;;;0.52;;
59042;SDS011;44826;51.596;5.624;2023-02-26T16:43:48;1.80;;;0.50;;
59042;SDS011;44826;51.596;5.624;2023-02-26T16:46:18;1.20;;;0.43;;
59042;SDS011;44826;51.596;5.624;2023-02-26T16:48:53;1.13;;;0.60;;
59042;SDS011;44826;51.596;5.624;2023-02-26T16:51:23;0.70;;;0.50;;
59042;SDS011;44826;51.596;5.624;2023-02-26T16:56:23;1.10;;;0.45;;
59042;SDS011;44826;51.596;5.624;2023-02-26T16:58:55;1.43;;;0.40;;
59042;SDS011;44826;51.596;5.624;2023-02-26T17:01:27;0.70;;;0.50;;
59042;SDS011;44826;51.596;5.624;2023-02-26T17:03:59;1.90;;;0.50;;
59042;SDS011;44826;51.596;5.624;2023-02-26T17:06:27;2.13;;;0.50;;
59042;SDS011;44826;51.596;5.624;2023-02-26T17:08:58;2.50;;;0.40;;
59042;SDS011;44826;51.596;5.624;2023-02-26T17:11:27;0.93;;;0.50;;
59042;SDS011;44826;51.596;5.624;2023-02-26T17:16:39;1.00;;;0.40;;
59042;SDS011;44826;51.596;5.624;2023-02-26T17:19:04;1.33;;;0.50;;
59042;SDS011;44826;51.596;5.624;2023-02-26T17:21:30;1.50;;;0.50;;
59042;SDS011;44826;51.596;5.624;2023-02-26T17:23:55;0.93;;;0.40;;
59042;SDS011;44826;51.596;5.624;2023-02-26T17:26:21;0.93;;;0.50;;
59042;SDS011;44826;51.596;5.624;2023-02-26T17:28:47;1.60;;;0.60;;
59042;SDS011;44826;51.596;5.624;2023-02-26T17:31:13;2.40;;;0.60;;
59042;SDS011;44826;51.596;5.624;2023-02-26T17:33:39;1.70;;;0.57;;
59042;SDS011;44826;51.596;5.624;2023-02-26T17:36:06;1.60;;;0.43;;
59042;SDS011;44826;51.596;5.624;2023-02-26T17:38:31;1.13;;;0.60;;
59042;SDS011;44826;51.596;5.624;2023-02-26T17:40:57;1.37;;;0.60;;
59042;SDS011;44826;51.596;5.624;2023-02-26T17:43:23;2.47;;;0.60;;
59042;SDS011;44826;51.596;5.624;2023-02-26T17:45:49;1.60;;;0.60;;
59042;SDS011;44826;51.596;5.624;2023-02-26T17:48:15;1.90;;;0.67;;
59042;SDS011;44826;51.596;5.624;2023-02-26T17:53:10;1.67;;;0.80;;